createdAt,value
2022-12-27T00:00:58.950Z,0.08
2022-12-27T00:03:27.009Z,0.17
2022-12-27T00:05:54.985Z,0.19
2022-12-27T00:08:22.946Z,-0.01
2022-12-27T00:10:51.143Z,0.17
2022-12-27T00:13:19.082Z,0.03
2022-12-27T00:15:46.966Z,0.01
2022-12-27T00:18:15.055Z,0.03
2022-12-27T00:20:43.037Z,0.10
2022-12-27T00:23:10.991Z,-0.14
2022-12-27T00:25:38.978Z,-0.03
2022-12-27T00:28:06.889Z,0.05
2022-12-27T00:30:34.979Z,0.10
2022-12-27T00:33:02.895Z,-0.04
2022-12-27T00:35:30.891Z,-0.15
2022-12-27T00:37:59.222Z,-0.06
2022-12-27T00:40:29.169Z,-0.29
2022-12-27T00:42:57.168Z,-0.51
2022-12-27T00:45:25.120Z,-0.30
2022-12-27T00:47:53.093Z,-0.18
2022-12-27T00:50:21.129Z,-0.07
2022-12-27T00:52:49.113Z,-0.17
2022-12-27T00:55:17.217Z,-0.20
2022-12-27T00:57:45.182Z,-0.33
2022-12-27T01:00:13.956Z,-0.14
2022-12-27T01:02:42.106Z,-0.11
2022-12-27T01:05:10.257Z,-0.12
2022-12-27T01:07:38.269Z,-0.09
2022-12-27T01:10:06.768Z,-0.01
2022-12-27T01:12:36.125Z,-0.07
2022-12-27T01:15:06.189Z,-0.04
2022-12-27T01:17:34.698Z,-0.12
2022-12-27T01:20:03.359Z,-0.46
2022-12-27T01:22:31.308Z,-0.25
2022-12-27T01:24:59.234Z,-0.22
2022-12-27T01:27:27.305Z,-0.44
2022-12-27T01:29:55.277Z,-0.33
2022-12-27T01:32:23.531Z,-0.51
2022-12-27T01:34:52.105Z,-0.39
2022-12-27T01:37:20.028Z,-0.35
2022-12-27T01:39:47.936Z,-0.41
2022-12-27T01:42:38.433Z,-0.64
2022-12-27T01:45:32.959Z,-0.43
2022-12-27T01:48:12.437Z,-0.54
2022-12-27T01:50:55.391Z,-0.87
2022-12-27T01:53:30.134Z,-0.75
2022-12-27T01:56:03.836Z,-0.92
2022-12-27T01:58:37.414Z,-0.66
2022-12-27T02:01:11.587Z,-0.59
2022-12-27T02:03:45.765Z,-0.51
2022-12-27T02:06:15.429Z,-0.64
2022-12-27T02:08:49.164Z,-0.58
2022-12-27T02:11:39.971Z,-0.65
2022-12-27T02:14:08.184Z,-0.64
2022-12-27T02:16:36.078Z,-0.74
2022-12-27T02:19:08.591Z,-0.50
2022-12-27T02:21:42.185Z,-0.52
2022-12-27T02:24:37.610Z,-0.94
2022-12-27T02:27:38.817Z,-0.70
2022-12-27T02:30:08.903Z,-0.69
2022-12-27T02:32:45.417Z,-0.84
2022-12-27T02:35:27.191Z,-0.74
2022-12-27T02:38:02.805Z,-0.77
2022-12-27T02:40:51.220Z,-0.72
2022-12-27T02:43:37.609Z,-0.57
2022-12-27T02:46:46.823Z,-0.80
2022-12-27T02:49:48.618Z,-0.78
2022-12-27T02:53:07.273Z,-0.95
2022-12-27T02:56:14.897Z,-0.99
2022-12-27T03:00:37.618Z,-1.11
2022-12-27T03:03:50.728Z,-1.21
2022-12-27T03:06:42.876Z,-0.99
2022-12-27T03:09:41.857Z,-1.09
2022-12-27T03:12:36.074Z,-0.95
2022-12-27T03:15:35.376Z,-0.85
2022-12-27T03:18:11.134Z,-0.94
2022-12-27T03:20:59.174Z,-1.08
2022-12-27T03:23:47.926Z,-1.17
2022-12-27T03:26:17.942Z,-1.07
2022-12-27T03:29:07.371Z,-0.98
2022-12-27T03:32:02.502Z,-1.16
2022-12-27T03:34:41.057Z,-1.06
2022-12-27T03:37:34.488Z,-0.99
2022-12-27T03:40:20.735Z,-1.05
2022-12-27T03:43:13.238Z,-0.99
2022-12-27T03:46:16.247Z,-1.04
2022-12-27T03:48:57.894Z,-1.19
2022-12-27T03:51:30.378Z,-1.05
2022-12-27T03:54:07.117Z,-0.94
2022-12-27T03:56:35.860Z,-0.89
2022-12-27T03:59:05.414Z,-0.89
2022-12-27T04:01:33.403Z,-1.10
2022-12-27T04:04:01.398Z,-1.05
2022-12-27T04:06:29.462Z,-1.00
2022-12-27T04:09:15.776Z,-1.39
2022-12-27T04:12:02.446Z,-1.18
2022-12-27T04:14:48.971Z,-1.03
2022-12-27T04:17:36.221Z,-1.10
2022-12-27T04:20:22.909Z,-1.03
2022-12-27T04:23:09.165Z,-1.29
2022-12-27T04:25:55.488Z,-1.44
2022-12-27T04:28:41.587Z,-1.35
2022-12-27T04:31:28.660Z,-1.30
2022-12-27T04:34:15.656Z,-1.55
2022-12-27T04:36:43.746Z,-1.50
2022-12-27T04:39:13.166Z,-1.27
2022-12-27T04:41:59.598Z,-1.20
2022-12-27T04:44:45.719Z,-1.25
2022-12-27T04:47:34.507Z,-1.43
2022-12-27T04:50:22.577Z,-1.49
2022-12-27T04:53:11.285Z,-1.42
2022-12-27T04:55:39.230Z,-1.48
2022-12-27T04:58:07.115Z,-1.37
2022-12-27T05:00:53.807Z,-1.30
2022-12-27T05:03:24.457Z,-1.39
2022-12-27T05:05:53.928Z,-1.38
2022-12-27T05:08:41.634Z,-1.31
2022-12-27T05:11:29.544Z,-1.44
2022-12-27T05:14:00.114Z,-1.65
2022-12-27T05:16:35.959Z,-1.45
2022-12-27T05:19:08.909Z,-1.55
2022-12-27T05:21:38.426Z,-1.44
2022-12-27T05:24:24.863Z,-1.42
2022-12-27T05:26:56.488Z,-1.42
2022-12-27T05:29:24.517Z,-1.54
2022-12-27T05:31:52.740Z,-1.41
2022-12-27T05:34:20.777Z,-1.61
2022-12-27T05:36:48.704Z,-1.61
2022-12-27T05:39:16.576Z,-1.99
2022-12-27T05:41:44.690Z,-1.88
2022-12-27T05:44:12.570Z,-1.61
2022-12-27T05:46:40.795Z,-1.62
2022-12-27T05:49:08.707Z,-1.46
2022-12-27T05:51:37.271Z,-1.50
2022-12-27T05:54:05.487Z,-1.56
2022-12-27T05:56:37.436Z,-1.41
2022-12-27T05:59:08.222Z,-1.44
2022-12-27T06:01:36.276Z,-1.38
2022-12-27T06:04:04.368Z,-1.28
2022-12-27T06:06:34.027Z,-1.66
2022-12-27T06:09:02.320Z,-1.51
2022-12-27T06:11:30.234Z,-1.47
2022-12-27T06:13:58.056Z,-1.62
2022-12-27T06:16:26.130Z,-1.47
2022-12-27T06:18:53.987Z,-1.28
2022-12-27T06:21:22.378Z,-1.12
2022-12-27T06:23:50.650Z,-1.39
2022-12-27T06:26:22.347Z,-1.23
2022-12-27T06:28:50.901Z,-1.18
2022-12-27T06:31:20.239Z,-1.49
2022-12-27T06:33:49.047Z,-1.55
2022-12-27T06:36:23.365Z,-1.25
2022-12-27T06:38:51.325Z,-1.41
2022-12-27T06:41:19.399Z,-1.08
2022-12-27T06:43:48.226Z,-0.93
2022-12-27T06:46:18.852Z,-0.73
2022-12-27T06:48:47.950Z,-1.01
2022-12-27T06:51:18.290Z,-0.82
2022-12-27T06:53:48.502Z,-0.54
2022-12-27T06:56:18.191Z,-0.39
2022-12-27T06:58:47.343Z,-0.39
2022-12-27T07:01:23.870Z,-0.45
2022-12-27T07:03:54.730Z,-0.17
2022-12-27T07:06:24.483Z,-0.01
2022-12-27T07:08:53.521Z,-0.10
2022-12-27T07:11:22.855Z,0.02
2022-12-27T07:13:53.675Z,0.37
2022-12-27T07:16:27.028Z,0.61
2022-12-27T07:18:56.897Z,0.58
2022-12-27T07:21:27.298Z,0.91
2022-12-27T07:23:56.025Z,1.19
2022-12-27T07:26:28.137Z,1.37
2022-12-27T07:28:58.598Z,1.22
2022-12-27T07:31:30.013Z,1.20
2022-12-27T07:34:00.636Z,1.21
2022-12-27T07:36:32.689Z,1.30
2022-12-27T07:39:00.744Z,1.62
2022-12-27T07:41:29.225Z,1.93
2022-12-27T07:43:57.401Z,1.83
2022-12-27T07:46:27.022Z,2.68
2022-12-27T07:48:56.504Z,4.05
2022-12-27T07:51:25.521Z,4.83
2022-12-27T07:53:54.129Z,4.95
2022-12-27T07:56:26.659Z,4.95
2022-12-27T07:58:57.865Z,4.96
2022-12-27T08:01:28.874Z,5.14
2022-12-27T08:03:57.288Z,4.74
2022-12-27T08:06:35.698Z,4.66
2022-12-27T08:09:07.040Z,4.68
2022-12-27T08:11:34.983Z,4.19
2022-12-27T08:14:03.188Z,4.05
2022-12-27T08:16:31.295Z,3.94
2022-12-27T08:19:04.799Z,3.94
2022-12-27T08:21:36.969Z,4.32
2022-12-27T08:24:05.468Z,4.16
2022-12-27T08:26:33.395Z,4.82
2022-12-27T08:29:01.572Z,5.25
2022-12-27T08:31:30.092Z,5.39
2022-12-27T08:33:58.960Z,5.08
2022-12-27T08:39:15.421Z,5.32
2022-12-27T08:41:43.834Z,5.26
2022-12-27T08:44:12.865Z,5.14
2022-12-27T08:46:41.301Z,5.20
2022-12-27T08:49:09.599Z,4.65
2022-12-27T08:51:41.046Z,4.69
2022-12-27T08:54:10.212Z,4.83
2022-12-27T08:56:38.169Z,4.99
2022-12-27T08:59:06.658Z,5.02
2022-12-27T09:01:35.127Z,4.47
2022-12-27T09:04:03.500Z,4.61
2022-12-27T09:06:31.735Z,4.93
2022-12-27T09:09:01.618Z,5.10
2022-12-27T09:11:33.440Z,5.07
2022-12-27T09:14:04.212Z,4.76
2022-12-27T09:16:36.635Z,4.64
2022-12-27T09:19:05.390Z,5.22
2022-12-27T09:21:34.602Z,4.96
2022-12-27T09:24:03.403Z,5.18
2022-12-27T09:26:31.489Z,5.18
2022-12-27T09:29:00.128Z,5.14
2022-12-27T09:31:28.859Z,5.26
2022-12-27T09:33:57.962Z,5.01
2022-12-27T09:36:30.157Z,4.76
2022-12-27T09:38:59.199Z,5.00
2022-12-27T09:42:45.888Z,4.39
2022-12-27T09:45:06.804Z,5.83
2022-12-27T09:47:49.633Z,7.55
2022-12-27T09:50:33.811Z,8.41
2022-12-27T09:53:14.241Z,9.92
2022-12-27T09:55:53.243Z,11.45
2022-12-27T09:58:38.629Z,12.66
2022-12-27T10:01:32.807Z,12.82
2022-12-27T10:04:02.666Z,13.94
2022-12-27T10:06:34.108Z,14.75
2022-12-27T10:09:24.120Z,15.13
2022-12-27T10:12:04.798Z,16.36
2022-12-27T10:15:04.662Z,16.98
2022-12-27T10:17:52.702Z,17.91
2022-12-27T10:20:48.666Z,18.26
2022-12-27T10:23:23.128Z,17.57
2022-12-27T10:26:02.093Z,18.08
2022-12-27T10:28:58.866Z,18.89
2022-12-27T10:31:27.953Z,18.31
2022-12-27T10:33:58.397Z,18.53
2022-12-27T10:36:29.491Z,18.60
2022-12-27T10:38:57.824Z,20.24
2022-12-27T10:41:52.052Z,22.24
2022-12-27T10:44:20.369Z,23.49
2022-12-27T10:46:56.539Z,24.67
2022-12-27T10:49:30.005Z,25.68
2022-12-27T10:52:08.173Z,26.46
2022-12-27T10:54:49.688Z,27.46
2022-12-27T10:57:30.315Z,28.08
2022-12-27T11:00:19.904Z,27.77
2022-12-27T11:03:01.027Z,28.70
2022-12-27T11:05:31.724Z,28.14
2022-12-27T11:08:01.634Z,28.86
2022-12-27T11:10:34.258Z,27.86
2022-12-27T11:13:05.518Z,27.79
2022-12-27T11:15:43.346Z,28.22
2022-12-27T11:18:18.105Z,27.65
2022-12-27T11:21:04.692Z,27.56
2022-12-27T11:23:44.785Z,27.84
2022-12-27T11:26:26.018Z,27.17
2022-12-27T11:28:58.820Z,26.39
2022-12-27T11:31:31.257Z,25.62
2022-12-27T11:34:08.170Z,26.03
2022-12-27T11:36:42.464Z,25.79
2022-12-27T11:39:37.981Z,25.49
2022-12-27T11:42:18.669Z,25.56
2022-12-27T11:45:13.353Z,25.23
2022-12-27T11:47:50.356Z,25.62
2022-12-27T11:50:27.767Z,25.96
2022-12-27T11:53:23.446Z,26.68
2022-12-27T11:56:00.087Z,26.14
2022-12-27T11:59:00.297Z,25.11
2022-12-27T12:02:06.981Z,22.81
2022-12-27T12:04:35.225Z,22.89
2022-12-27T12:07:39.747Z,21.76
2022-12-27T12:10:29.455Z,20.49
2022-12-27T12:13:18.546Z,19.92
2022-12-27T12:16:01.617Z,18.95
2022-12-27T12:18:56.110Z,18.38
2022-12-27T12:21:27.818Z,18.03
2022-12-27T12:24:14.169Z,17.27
2022-12-27T12:26:58.799Z,16.56
2022-12-27T12:29:46.963Z,15.96
2022-12-27T12:32:22.317Z,15.70
2022-12-27T12:35:27.962Z,15.50
2022-12-27T12:38:13.649Z,15.73
2022-12-27T12:40:47.683Z,15.66
2022-12-27T12:43:19.020Z,14.97
2022-12-27T12:46:14.709Z,14.45
2022-12-27T12:48:52.838Z,13.94
2022-12-27T12:51:31.417Z,13.45
2022-12-27T12:54:20.591Z,13.17
2022-12-27T12:57:10.275Z,12.59
2022-12-27T12:59:57.015Z,12.76
2022-12-27T13:02:46.953Z,12.52
2022-12-27T13:05:56.421Z,12.37
2022-12-27T13:08:39.031Z,12.33
2022-12-27T13:11:25.758Z,12.04
2022-12-27T13:14:32.679Z,11.73
2022-12-27T13:17:35.096Z,11.83
2022-12-27T13:20:34.324Z,11.97
2022-12-27T13:23:41.302Z,12.03
2022-12-27T13:26:25.299Z,11.92
2022-12-27T13:29:15.508Z,11.96
2022-12-27T13:32:10.194Z,11.81
2022-12-27T13:35:03.553Z,11.69
2022-12-27T13:37:53.561Z,11.69
2022-12-27T13:40:59.263Z,11.45
2022-12-27T13:44:01.996Z,11.38
2022-12-27T13:46:42.402Z,11.32
2022-12-27T13:49:38.161Z,11.28
2022-12-27T13:52:27.346Z,11.22
2022-12-27T13:55:20.953Z,11.30
2022-12-27T13:58:08.257Z,11.23
2022-12-27T14:00:47.003Z,11.13
2022-12-27T14:03:33.566Z,11.20
2022-12-27T14:06:06.376Z,11.17
2022-12-27T14:09:29.520Z,11.12
2022-12-27T14:12:15.995Z,11.06
2022-12-27T14:14:47.276Z,11.09
2022-12-27T14:17:24.333Z,11.04
2022-12-27T14:19:55.397Z,10.94
2022-12-27T14:22:55.195Z,10.81
2022-12-27T14:25:52.365Z,10.78
2022-12-27T14:29:00.123Z,10.74
2022-12-27T14:32:05.880Z,10.55
2022-12-27T14:34:42.551Z,10.51
2022-12-27T14:37:35.329Z,10.45
2022-12-27T14:40:12.680Z,10.44
2022-12-27T14:43:16.126Z,10.25
2022-12-27T14:46:08.318Z,10.27
2022-12-27T14:48:45.835Z,10.22
2022-12-27T14:55:02.717Z,10.23
2022-12-27T14:57:49.855Z,10.19
2022-12-27T15:00:19.974Z,10.25
2022-12-27T15:02:51.336Z,10.12
2022-12-27T15:05:27.727Z,10.16
2022-12-27T15:08:07.408Z,10.09
2022-12-27T15:10:54.253Z,10.07
2022-12-27T15:13:39.285Z,9.99
2022-12-27T15:16:16.283Z,9.91
2022-12-27T15:19:03.013Z,9.88
2022-12-27T15:21:49.148Z,9.82
2022-12-27T15:24:35.572Z,9.78
2022-12-27T15:27:19.990Z,9.81
2022-12-27T15:30:22.251Z,9.78
2022-12-27T15:33:04.625Z,9.62
2022-12-27T15:36:03.319Z,9.66
2022-12-27T15:38:51.073Z,9.53
2022-12-27T15:41:42.080Z,9.38
2022-12-27T15:44:23.805Z,9.36
2022-12-27T15:47:29.576Z,9.39
2022-12-27T15:50:34.680Z,9.38
2022-12-27T15:53:28.011Z,9.36
2022-12-27T15:55:59.089Z,9.25
2022-12-27T15:58:27.998Z,9.23
2022-12-27T16:01:23.661Z,9.11
2022-12-27T16:03:55.518Z,9.10
2022-12-27T16:06:35.969Z,9.05
2022-12-27T16:09:25.878Z,8.87
2022-12-27T16:12:09.453Z,9.10
2022-12-27T16:14:40.635Z,8.99
2022-12-27T16:17:27.490Z,8.98
2022-12-27T16:20:01.353Z,8.89
2022-12-27T16:22:42.980Z,8.90
2022-12-27T16:25:32.706Z,8.82
2022-12-27T16:28:24.145Z,8.75
2022-12-27T16:30:55.087Z,8.73
2022-12-27T16:33:26.152Z,8.70
2022-12-27T16:36:12.597Z,8.63
2022-12-27T16:38:57.118Z,8.57
2022-12-27T16:41:25.505Z,8.48
2022-12-27T16:44:02.678Z,8.42
2022-12-27T16:46:57.310Z,8.31
2022-12-27T16:49:39.715Z,8.28
2022-12-27T16:52:15.344Z,8.22
2022-12-27T16:54:55.575Z,8.17
2022-12-27T16:57:26.995Z,8.11
2022-12-27T17:00:11.553Z,8.06
2022-12-27T17:02:42.561Z,7.78
2022-12-27T17:05:16.863Z,7.78
2022-12-27T17:07:58.474Z,7.73
2022-12-27T17:10:30.568Z,7.67
2022-12-27T17:13:13.703Z,7.63
2022-12-27T17:16:08.366Z,7.51
2022-12-27T17:18:48.620Z,7.48
2022-12-27T17:21:40.783Z,7.25
2022-12-27T17:24:10.783Z,7.14
2022-12-27T17:27:03.316Z,7.05
2022-12-27T17:29:49.646Z,7.07
2022-12-27T17:32:50.388Z,7.03
2022-12-27T17:35:52.868Z,6.95
2022-12-27T17:38:36.930Z,6.88
2022-12-27T17:41:17.660Z,6.81
2022-12-27T17:44:25.370Z,6.70
2022-12-27T17:47:16.071Z,6.58
2022-12-27T17:49:45.110Z,6.57
2022-12-27T17:52:37.405Z,6.43
2022-12-27T17:55:43.132Z,6.44
2022-12-27T17:58:16.602Z,6.40
2022-12-27T18:00:55.921Z,6.31
2022-12-27T18:03:40.544Z,6.36
2022-12-27T18:06:09.344Z,6.37
2022-12-27T18:08:39.242Z,6.33
2022-12-27T18:11:10.748Z,6.30
2022-12-27T18:13:45.858Z,6.28
2022-12-27T18:16:28.148Z,6.26
2022-12-27T18:19:00.353Z,6.29
2022-12-27T18:21:30.540Z,6.21
2022-12-27T18:23:59.231Z,6.18
2022-12-27T18:27:00.275Z,5.96
2022-12-27T18:29:29.014Z,5.92
2022-12-27T18:32:03.003Z,5.93
2022-12-27T18:34:41.653Z,5.93
2022-12-27T18:37:13.779Z,6.01
2022-12-27T18:39:51.748Z,6.04
2022-12-27T18:42:37.821Z,6.07
2022-12-27T18:45:20.026Z,6.08
2022-12-27T18:47:51.602Z,6.08
2022-12-27T18:50:23.118Z,6.05
2022-12-27T18:53:28.654Z,5.92
2022-12-27T18:56:06.984Z,5.75
2022-12-27T18:58:35.610Z,5.62
2022-12-27T19:01:25.563Z,5.59
2022-12-27T19:04:15.540Z,5.44
2022-12-27T19:07:08.821Z,5.35
2022-12-27T19:09:51.408Z,5.27
2022-12-27T19:12:29.034Z,5.08
2022-12-27T19:14:58.102Z,5.06
2022-12-27T19:17:30.044Z,4.68
2022-12-27T19:20:02.495Z,4.75
2022-12-27T19:22:36.576Z,4.76
2022-12-27T19:25:19.250Z,4.75
2022-12-27T19:28:16.675Z,4.21
2022-12-27T19:30:51.955Z,4.13
2022-12-27T19:33:30.573Z,4.34
2022-12-27T19:36:00.092Z,4.36
2022-12-27T19:38:31.919Z,4.32
2022-12-27T19:41:04.165Z,4.28
2022-12-27T19:43:42.923Z,4.29
2022-12-27T19:46:13.418Z,4.20
2022-12-27T19:48:42.141Z,4.20
2022-12-27T19:51:16.511Z,4.19
2022-12-27T19:53:55.428Z,4.25
2022-12-27T19:56:26.413Z,3.86
2022-12-27T19:58:54.740Z,3.88
2022-12-27T20:01:23.376Z,3.97
2022-12-27T20:03:51.795Z,3.97
2022-12-27T20:06:24.143Z,4.03
2022-12-27T20:08:55.385Z,4.00
2022-12-27T20:11:23.965Z,3.85
2022-12-27T20:13:51.929Z,3.73
2022-12-27T20:16:20.908Z,3.54
2022-12-27T20:18:49.003Z,3.42
2022-12-27T20:21:19.282Z,3.51
2022-12-27T20:23:47.868Z,3.46
2022-12-27T20:26:21.762Z,3.59
2022-12-27T20:28:50.290Z,3.62
2022-12-27T20:31:20.442Z,3.23
2022-12-27T20:33:53.352Z,3.25
2022-12-27T20:36:22.762Z,3.28
2022-12-27T20:38:50.625Z,3.28
2022-12-27T20:41:19.888Z,3.00
2022-12-27T20:43:47.759Z,3.21
2022-12-27T20:46:17.974Z,3.18
2022-12-27T20:48:47.592Z,3.18
2022-12-27T20:51:21.354Z,3.18
2022-12-27T20:53:57.459Z,3.11
2022-12-27T20:56:26.206Z,2.98
2022-12-27T20:58:54.272Z,2.83
2022-12-27T21:01:24.479Z,2.84
2022-12-27T21:03:53.640Z,2.88
2022-12-27T21:06:27.274Z,2.88
2022-12-27T21:08:57.819Z,2.92
2022-12-27T21:11:33.915Z,2.88
2022-12-27T21:14:03.973Z,2.84
2022-12-27T21:16:34.074Z,2.83
2022-12-27T21:19:05.102Z,2.86
2022-12-27T21:21:36.096Z,2.78
2022-12-27T21:24:06.483Z,2.85
2022-12-27T21:26:36.697Z,2.78
2022-12-27T21:29:06.941Z,2.62
2022-12-27T21:31:36.657Z,2.39
2022-12-27T21:34:05.097Z,2.32
2022-12-27T21:36:34.301Z,2.52
2022-12-27T21:39:03.604Z,2.48
2022-12-27T21:41:33.526Z,2.49
2022-12-27T21:44:01.678Z,2.52
2022-12-27T21:46:33.241Z,2.23
2022-12-27T21:49:09.686Z,2.25
2022-12-27T21:51:38.354Z,2.36
2022-12-27T21:54:07.328Z,2.28
2022-12-27T21:56:35.582Z,2.28
2022-12-27T21:59:07.530Z,2.18
2022-12-27T22:01:50.100Z,2.24
2022-12-27T22:04:21.867Z,2.23
2022-12-27T22:06:50.802Z,2.20
2022-12-27T22:09:19.680Z,2.29
2022-12-27T22:11:48.154Z,2.01
2022-12-27T22:14:18.740Z,1.93
2022-12-27T22:16:49.864Z,2.07
2022-12-27T22:19:17.962Z,2.11
2022-12-27T22:21:45.947Z,2.13
2022-12-27T22:24:19.731Z,2.13
2022-12-27T22:26:48.861Z,2.04
2022-12-27T22:29:17.964Z,1.99
2022-12-27T22:31:46.764Z,1.93
2022-12-27T22:34:14.799Z,1.90
2022-12-27T22:36:42.937Z,2.00
2022-12-27T22:39:10.977Z,2.27
2022-12-27T22:41:39.033Z,2.30
2022-12-27T22:44:10.543Z,2.29
2022-12-27T22:47:06.992Z,2.25
2022-12-27T22:49:26.977Z,2.17
2022-12-27T22:51:54.787Z,2.42
2022-12-27T22:55:05.401Z,2.47
2022-12-27T22:57:10.845Z,2.50
2022-12-27T22:59:38.788Z,2.47
2022-12-27T23:02:06.846Z,2.58
2022-12-27T23:04:35.459Z,2.59
2022-12-27T23:07:03.619Z,2.58
2022-12-27T23:09:31.594Z,2.45
2022-12-27T23:11:59.504Z,2.50
2022-12-27T23:14:27.628Z,2.69
2022-12-27T23:16:55.751Z,2.68
2022-12-27T23:19:24.567Z,2.43
2022-12-27T23:21:52.406Z,2.65
2022-12-27T23:24:20.446Z,2.69
2022-12-27T23:26:49.015Z,2.68
2022-12-27T23:29:16.857Z,2.85
2022-12-27T23:31:54.683Z,2.86
2022-12-27T23:34:28.692Z,2.90
2022-12-27T23:37:01.509Z,2.89
2022-12-27T23:39:29.455Z,2.76
2022-12-27T23:41:57.541Z,2.64
2022-12-27T23:44:33.866Z,2.79
2022-12-27T23:47:04.529Z,2.69
2022-12-27T23:49:32.616Z,2.77
2022-12-27T23:52:00.518Z,2.86
2022-12-27T23:54:28.484Z,2.82
2022-12-27T23:56:56.429Z,2.48
2022-12-27T23:59:24.832Z,2.57
